• Join FlightAware (Why Join?)
  • Login
  • US Flag 
12:56PM EDT


 

Airport Tracker/Info


-or-


 

Live Flight TrackerFlight Track Log ✈ AAL1862 ✈ 29-Aug-2013 ✈ KSAT - KDFW

Flight Track Log - Related Links

Times and Time Zones

All times are in EDT time to prevent confusion due to time zone crossing. See the AAL1862 flight status page for this flight to view local times or setup timezone preferences in your user account.

Time Position Orientation Groundspeed Altitude Reporting Facility
EDT Latitude Longitude Course Direction KTS MPH feet Rate Location/Type
08:34AM 29.5222 -98.4592 10° North 163 188 1,600  Level Houston Center
08:35AM 29.5058 -98.4394 134° Southeast 170 196 2,700 1,860 Climbing Houston Center
08:36AM 29.4931 -98.3989 110° East 232 267 3,700 2,580 Climbing Houston Center
08:37AM 29.7891 -98.4273 North  Level FlightAware Approximate
08:37AM 29.5194 -98.3214 69° East 266 306 6,900  Level Houston Center
08:38AM 29.8752 -98.4201 North  Level FlightAware Approximate
08:38AM 29.5647 -98.2442 56° Northeast 281 323 10,400  Level Houston Center
08:39AM 29.9609 -98.4078 10° North  Level FlightAware Approximate
08:39AM 29.6517 -98.2567 353° North 324 373 12,500  Level Houston Center
08:40AM 30.0460 -98.3908 10° North  Level FlightAware Approximate
08:40AM 29.7500 -98.2861 345° North 338 389 15,300  Level Houston Center
08:41AM 29.8444 -98.3150 345° North 355 409 16,800 1,800 Climbing Houston Center
08:42AM 29.9489 -98.3464 345° North 385 443 19,100 2,160 Climbing Houston Center
08:43AM 30.0672 -98.3811 346° North 407 468 21,300 1,920 Climbing Houston Center
08:44AM 30.1825 -98.3819 360° North 423 487 23,100 1,740 Climbing Houston Center
08:45AM 30.2961 -98.3656 North 426 490 24,900 1,500 Climbing Houston Center
08:46AM 30.4189 -98.3481 North 435 501 26,200 1,500 Climbing Houston Center
08:47AM 30.5458 -98.3292 North 447 514 28,000 1,260 Climbing Houston Center
08:48AM 30.6722 -98.3106 North 450 518 28,900 480 Climbing Houston Center
08:49AM 30.7969 -98.2925 North 448 516 29,000  Climbing Houston Center
08:50AM 30.9406 -98.2711 North 443 510 29,000  Level Houston Center
08:51AM 31.0647 -98.2525 North 443 510 29,000  Level Houston Center
08:52AM 31.1803 -98.1936 24° Northeast 452 520 29,000  Level Houston Center
08:53AM 31.2961 -98.1317 25° Northeast 451 519 29,000 -300 Level Houston Center
08:54AM 31.4136 -98.0708 24° Northeast 453 521 28,500 -1,440 Descending Houston Center
08:55AM 31.5306 -98.0117 23° Northeast 452 520 26,100 -2,160 Descending Houston Center
08:56AM 31.6447 -97.9492 25° Northeast 448 516 24,100 -2,100 Descending Houston Center
08:57AM 31.7575 -97.8897 24° Northeast 442 509 21,900 -1,980 Descending Houston Center
08:58AM 31.8667 -97.8319 24° Northeast 430 495 20,100 -1,800 Descending Houston Center
08:59AM 31.9831 -97.7686 25° Northeast 413 475 18,100 -1,800 Descending Fort Worth Center
09:00AM 32.0939 -97.7100 24° Northeast 400 460 16,400 -1,680 Descending Fort Worth Center
09:01AM 32.1839 -97.6614 25° Northeast 400 460 14,800 -1,740 Descending Fort Worth Center
09:02AM 32.2925 -97.6050 24° Northeast 394 453 13,000 -1,500 Descending Fort Worth Center
09:03AM 32.3781 -97.5561 26° Northeast 383 441 11,800 -1,140 Descending Fort Worth Center
09:04AM 32.4681 -97.5069 25° Northeast 338 389 10,800 -1,440 Descending Fort Worth Center
09:05AM 32.5203 -97.4456 45° Northeast 294 338 9,000 -2,040 Descending Fort Worth Center
09:06AM 32.5828 -97.3764 43° Northeast 279 321 6,800 -1,800 Descending Fort Worth Center
09:07AM 32.6517 -97.3542 15° North 262 302 5,400 -900 Descending Fort Worth Center
09:08AM 32.7331 -97.3319 13° North 269 310 5,000 -240 Descending Fort Worth Center
09:09AM 32.8019 -97.3122 14° North 275 316 5,000 -600 Level Fort Worth Center
09:10AM 32.8833 -97.2872 14° North 275 316 3,900 -540 Descending Fort Worth Center
09:11AM 32.9336 -97.2700 16° North 235 270 4,000 -420 Climbing Fort Worth Center
09:12AM 32.9939 -97.2500 16° North 197 227 3,100 -540 Descending Fort Worth Center
09:13AM 32.9939 -97.1956 90° East 153 176 3,000 -480 Descending Fort Worth Center
09:14AM 32.9731 -97.1461 117° Southeast 140 161 2,200 -900 Descending Fort Worth Center
09:15AM 32.9394 -97.1164 143° Southeast 135 155 1,300 -900 Descending Fort Worth Center